createdAt,value
2023-04-18T00:00:56.643Z,100903.69
2023-04-18T00:05:06.013Z,100907.03
2023-04-18T00:09:11.486Z,100916.72
2023-04-18T00:13:14.810Z,100921.88
2023-04-18T00:17:16.168Z,100925.53
2023-04-18T00:21:32.626Z,100930.84
2023-04-18T00:25:47.443Z,100923.91
2023-04-18T00:29:48.299Z,100921.19
2023-04-18T00:33:49.647Z,100919.66
2023-04-18T00:37:53.318Z,100923.94
2023-04-18T00:41:53.950Z,100918.69
2023-04-18T00:45:54.225Z,100905.66
2023-04-18T00:49:56.268Z,100907.44
2023-04-18T00:54:00.416Z,100902.97
2023-04-18T00:58:01.973Z,100892.50
2023-04-18T01:02:09.742Z,100888.97
2023-04-18T01:06:11.271Z,100892.47
2023-04-18T01:10:19.701Z,100892.50
2023-04-18T01:14:25.728Z,100883.75
2023-04-18T01:18:31.478Z,100884.63
2023-04-18T01:22:46.363Z,100882.78
2023-04-18T01:26:50.381Z,100892.34
2023-04-18T01:31:12.144Z,100889.72
2023-04-18T01:35:33.892Z,100889.66
2023-04-18T01:40:05.059Z,100877.34
2023-04-18T01:44:43.351Z,100870.59
2023-04-18T01:54:25.461Z,100867.94
2023-04-18T01:58:34.675Z,100868.78
2023-04-18T02:03:22.828Z,100870.44
2023-04-18T02:07:37.082Z,100869.59
2023-04-18T02:12:04.455Z,100873.16
2023-04-18T02:16:34.594Z,100876.41
2023-04-18T02:20:49.852Z,100879.09
2023-04-18T02:25:04.483Z,100868.88
2023-04-18T02:29:31.809Z,100862.75
2023-04-18T02:38:10.401Z,100865.22
2023-04-18T02:42:37.221Z,100865.13
2023-04-18T02:46:37.747Z,100866.06
2023-04-18T02:50:40.096Z,100866.72
2023-04-18T02:54:47.133Z,100865.88
2023-04-18T02:58:53.387Z,100870.25
2023-04-18T03:07:55.081Z,100867.56
2023-04-18T03:12:06.481Z,100873.53
2023-04-18T03:16:17.466Z,100873.59
2023-04-18T03:20:23.145Z,100879.88
2023-04-18T03:24:33.074Z,100878.91
2023-04-18T03:28:40.119Z,100879.00
2023-04-18T03:32:45.571Z,100885.09
2023-04-18T03:37:04.863Z,100888.56
2023-04-18T03:41:15.292Z,100893.94
2023-04-18T03:45:21.070Z,100883.38
2023-04-18T03:49:23.012Z,100886.00
2023-04-18T03:53:31.034Z,100891.09
2023-04-18T03:57:36.764Z,100903.19
2023-04-18T04:01:46.932Z,100903.53
2023-04-18T04:05:59.543Z,100905.44
2023-04-18T04:10:02.646Z,100909.81
2023-04-18T04:14:08.845Z,100921.25
2023-04-18T04:18:17.202Z,100921.41
2023-04-18T04:22:19.889Z,100926.50
2023-04-18T04:26:23.516Z,100926.63
2023-04-18T04:30:28.971Z,100932.06
2023-04-18T04:34:35.939Z,100930.31
2023-04-18T04:38:44.980Z,100925.22
2023-04-18T04:42:52.075Z,100928.75
2023-04-18T04:47:04.999Z,100935.69
2023-04-18T04:51:16.595Z,100931.44
2023-04-18T04:55:30.268Z,100938.31
2023-04-18T04:59:31.604Z,100930.53
2023-04-18T05:03:46.443Z,100945.56
2023-04-18T05:08:04.165Z,100940.38
2023-04-18T05:12:18.409Z,100938.63
2023-04-18T05:16:33.165Z,100937.69
2023-04-18T05:20:53.627Z,100936.94
2023-04-18T05:25:16.391Z,100936.97
2023-04-18T05:29:47.499Z,100942.28
2023-04-18T05:34:11.479Z,100946.84
2023-04-18T05:38:16.002Z,100946.16
2023-04-18T05:42:59.278Z,100950.59
2023-04-18T05:47:12.393Z,100956.94
2023-04-18T05:52:03.394Z,100959.50
2023-04-18T05:56:22.567Z,100962.47
2023-04-18T06:00:34.406Z,100965.34
2023-04-18T06:05:08.322Z,100953.91
2023-04-18T06:09:25.856Z,100957.50
2023-04-18T06:13:34.825Z,100962.91
2023-04-18T06:17:46.567Z,100962.03
2023-04-18T06:22:34.565Z,100962.03
2023-04-18T06:27:06.132Z,100963.94
2023-04-18T06:31:32.600Z,100972.69
2023-04-18T06:35:52.018Z,100970.94
2023-04-18T06:40:02.518Z,100975.44
2023-04-18T06:44:33.155Z,100963.34
2023-04-18T06:48:51.485Z,100971.28
2023-04-18T06:53:21.448Z,100968.88
2023-04-18T06:57:29.063Z,100971.38
2023-04-18T07:01:30.475Z,100973.81
2023-04-18T07:05:34.993Z,100976.41
2023-04-18T07:09:43.187Z,100977.31
2023-04-18T07:13:45.383Z,100981.03
2023-04-18T07:18:03.604Z,100977.69
2023-04-18T07:22:09.666Z,100983.84
2023-04-18T07:26:16.780Z,100978.63
2023-04-18T07:30:17.727Z,100994.41
2023-04-18T07:34:24.161Z,100991.91
2023-04-18T07:38:30.257Z,100998.03
2023-04-18T07:42:33.028Z,100995.44
2023-04-18T07:46:34.443Z,100991.88
2023-04-18T07:50:44.983Z,100996.28
2023-04-18T07:54:46.442Z,100998.00
2023-04-18T07:58:52.689Z,101003.31
2023-04-18T08:02:53.506Z,101004.03
2023-04-18T08:06:53.721Z,101003.44
2023-04-18T08:10:53.668Z,101009.63
2023-04-18T08:14:56.040Z,101010.50
2023-04-18T08:18:56.838Z,101007.91
2023-04-18T08:23:07.921Z,101008.78
2023-04-18T08:27:12.746Z,101001.91
2023-04-18T08:31:17.136Z,101001.84
2023-04-18T08:35:17.586Z,101001.03
2023-04-18T08:39:25.559Z,101001.91
2023-04-18T08:43:26.958Z,100994.03
2023-04-18T08:47:31.401Z,101007.13
2023-04-18T08:51:34.222Z,101001.03
2023-04-18T08:55:35.676Z,100998.44
2023-04-18T08:59:41.599Z,100992.31
2023-04-18T09:03:51.950Z,100993.25
2023-04-18T09:07:53.979Z,100995.00
2023-04-18T09:11:54.632Z,101001.19
2023-04-18T09:15:58.653Z,100989.81
2023-04-18T09:20:01.768Z,100989.75
2023-04-18T09:24:12.232Z,100985.41
2023-04-18T09:28:24.746Z,100993.28
2023-04-18T09:32:27.743Z,100994.16
2023-04-18T09:36:31.534Z,100996.78
2023-04-18T09:40:35.495Z,101001.19
2023-04-18T09:44:35.821Z,101001.19
2023-04-18T09:48:36.755Z,100995.94
2023-04-18T09:52:40.370Z,100988.91
2023-04-18T09:56:42.429Z,100987.19
2023-04-18T10:00:44.412Z,100981.00
2023-04-18T10:04:51.953Z,100975.78
2023-04-18T10:08:56.856Z,100977.53
2023-04-18T10:13:10.041Z,100984.53
2023-04-18T10:17:10.247Z,100978.41
2023-04-18T10:21:11.587Z,100977.50
2023-04-18T10:25:15.034Z,100981.84
2023-04-18T10:29:21.556Z,100976.63
2023-04-18T10:33:33.726Z,100981.00
2023-04-18T10:37:37.670Z,100981.88
2023-04-18T10:41:51.517Z,100989.78
2023-04-18T10:46:20.113Z,100973.13
2023-04-18T10:50:32.056Z,100974.88
2023-04-18T10:54:33.423Z,100982.75
2023-04-18T10:58:36.725Z,100981.84
2023-04-18T11:02:39.006Z,100973.06
2023-04-18T11:06:50.231Z,100974.81
2023-04-18T11:11:04.357Z,100961.50
2023-04-18T11:15:13.094Z,100978.09
2023-04-18T11:19:26.102Z,100974.59
2023-04-18T11:23:27.529Z,100968.41
2023-04-18T11:27:31.788Z,100971.94
2023-04-18T11:31:34.612Z,100979.00
2023-04-18T11:35:46.714Z,100965.91
2023-04-18T11:39:50.815Z,100965.81
2023-04-18T11:43:51.018Z,100963.94
2023-04-18T11:47:58.430Z,100975.38
2023-04-18T11:52:01.331Z,100982.53
2023-04-18T11:56:06.459Z,100976.50
2023-04-18T12:00:09.938Z,100960.72
2023-04-18T12:04:12.124Z,100965.97
2023-04-18T12:08:15.053Z,100968.56
2023-04-18T12:12:16.887Z,100965.94
2023-04-18T12:16:18.851Z,100958.03
2023-04-18T12:20:24.843Z,100955.44
2023-04-18T12:24:26.560Z,100952.72
2023-04-18T12:28:28.120Z,100958.78
2023-04-18T12:32:28.955Z,100943.78
2023-04-18T12:36:31.529Z,100954.28
2023-04-18T12:40:31.683Z,100954.22
2023-04-18T12:44:32.435Z,100959.59
2023-04-18T12:48:33.200Z,100955.25
2023-04-18T12:52:40.573Z,100957.03
2023-04-18T12:56:43.052Z,100950.88
2023-04-18T13:00:47.877Z,100949.00
2023-04-18T13:04:50.498Z,100949.81
2023-04-18T13:09:01.152Z,100949.00
2023-04-18T13:13:01.241Z,100942.72
2023-04-18T13:17:01.790Z,100938.16
2023-04-18T13:21:02.266Z,100940.84
2023-04-18T13:25:11.181Z,100936.34
2023-04-18T13:29:11.754Z,100931.09
2023-04-18T13:33:15.563Z,100932.88
2023-04-18T13:37:16.304Z,100929.38
2023-04-18T13:41:19.315Z,100931.13
2023-04-18T13:45:22.752Z,100922.25
2023-04-18T13:49:32.278Z,100921.47
2023-04-18T13:53:32.521Z,100918.75
2023-04-18T13:57:40.338Z,100914.38
2023-04-18T14:01:44.107Z,100916.16
2023-04-18T14:05:44.910Z,100915.97
2023-04-18T14:09:47.985Z,100903.59
2023-04-18T14:13:50.815Z,100906.97
2023-04-18T14:17:50.943Z,100894.56
2023-04-18T14:21:51.582Z,100900.50
2023-04-18T14:25:54.297Z,100894.09
2023-04-18T14:30:07.137Z,100889.81
2023-04-18T14:34:10.641Z,100888.91
2023-04-18T14:38:20.279Z,100882.03
2023-04-18T14:42:23.892Z,100891.53
2023-04-18T14:46:28.461Z,100886.28
2023-04-18T14:50:28.977Z,100886.47
2023-04-18T14:54:29.975Z,100892.44
2023-04-18T14:58:32.679Z,100893.53
2023-04-18T15:02:41.100Z,100882.31
2023-04-18T15:06:59.302Z,100878.78
2023-04-18T15:11:06.094Z,100882.88
2023-04-18T15:15:08.132Z,100864.28
2023-04-18T15:19:35.428Z,100863.97
2023-04-18T15:23:40.839Z,100861.41
2023-04-18T15:27:51.000Z,100863.03
2023-04-18T15:31:57.108Z,100858.06
2023-04-18T15:35:59.527Z,100854.69
2023-04-18T15:40:00.657Z,100858.31
2023-04-18T15:44:00.858Z,100847.06
2023-04-18T15:48:01.006Z,100852.34
2023-04-18T15:52:06.639Z,100848.03
2023-04-18T15:56:15.266Z,100848.28
2023-04-18T16:00:45.796Z,100845.72
2023-04-18T16:04:48.817Z,100851.03
2023-04-18T16:08:56.762Z,100849.16
2023-04-18T16:12:59.537Z,100851.00
2023-04-18T16:16:59.840Z,100837.16
2023-04-18T16:20:59.538Z,100833.59
2023-04-18T16:25:14.422Z,100838.94
2023-04-18T16:29:20.751Z,100850.44
2023-04-18T16:33:27.989Z,100859.13
2023-04-18T16:37:31.068Z,100850.31
2023-04-18T16:41:33.634Z,100853.81
2023-04-18T16:45:34.285Z,100852.81
2023-04-18T16:49:36.047Z,100857.19
2023-04-18T16:53:46.466Z,100860.69
2023-04-18T16:57:49.110Z,100875.47
2023-04-18T17:01:55.202Z,100870.81
2023-04-18T17:06:03.099Z,100864.97
2023-04-18T17:10:04.592Z,100868.03
2023-04-18T17:14:09.320Z,100868.44
2023-04-18T17:18:22.812Z,100861.03
2023-04-18T17:22:24.016Z,100876.13
2023-04-18T17:26:34.145Z,100876.94
2023-04-18T17:30:36.651Z,100875.00
2023-04-18T17:34:39.424Z,100881.13
2023-04-18T17:38:40.869Z,100877.56
2023-04-18T17:42:43.336Z,100880.09
2023-04-18T17:46:50.522Z,100889.78
2023-04-18T17:50:50.841Z,100888.72
2023-04-18T17:54:51.954Z,100895.22
2023-04-18T17:58:53.326Z,100897.03
2023-04-18T18:02:56.928Z,100898.97
2023-04-18T18:06:58.446Z,100895.88
2023-04-18T18:10:58.517Z,100909.28
2023-04-18T18:15:00.283Z,100908.66
2023-04-18T18:19:06.874Z,100901.66
2023-04-18T18:23:10.062Z,100895.59
2023-04-18T18:27:16.650Z,100900.06
2023-04-18T18:31:22.800Z,100911.63
2023-04-18T18:35:25.663Z,100908.16
2023-04-18T18:39:29.599Z,100913.44
2023-04-18T18:43:29.600Z,100919.56
2023-04-18T18:47:30.468Z,100922.25
2023-04-18T18:51:37.040Z,100924.00
2023-04-18T18:55:38.293Z,100930.19
2023-04-18T18:59:38.882Z,100929.34
2023-04-18T19:03:42.944Z,100925.84
2023-04-18T19:07:48.206Z,100927.59
2023-04-18T19:11:49.097Z,100934.63
2023-04-18T19:15:49.201Z,100932.00
2023-04-18T19:19:49.487Z,100931.97
2023-04-18T19:23:51.694Z,100930.25
2023-04-18T19:27:51.775Z,100925.00
2023-04-18T19:31:51.910Z,100923.28
2023-04-18T19:35:54.001Z,100921.50
2023-04-18T19:39:55.349Z,100923.25
2023-04-18T19:43:55.630Z,100922.38
2023-04-18T19:47:55.621Z,100931.13
2023-04-18T19:51:58.652Z,100925.91
2023-04-18T19:56:01.673Z,100922.38
2023-04-18T20:00:03.972Z,100930.25
2023-04-18T20:04:11.831Z,100925.00
2023-04-18T20:08:12.124Z,100919.75
2023-04-18T20:12:14.970Z,100918.00
2023-04-18T20:16:17.363Z,100925.84
2023-04-18T20:20:17.628Z,100911.84
2023-04-18T20:24:20.875Z,100915.34
2023-04-18T20:28:23.196Z,100910.97
2023-04-18T20:32:26.937Z,100906.59
2023-04-18T20:36:29.289Z,100906.56
2023-04-18T20:40:33.339Z,100903.06
2023-04-18T20:44:36.507Z,100902.16
2023-04-18T20:48:36.045Z,100905.66
2023-04-18T20:52:36.706Z,100902.13
2023-04-18T20:56:40.484Z,100894.28
2023-04-18T21:00:47.020Z,100896.00
2023-04-18T21:04:48.900Z,100895.94
2023-04-18T21:08:50.145Z,100896.88
2023-04-18T21:12:50.090Z,100900.31
2023-04-18T21:16:52.291Z,100893.25
2023-04-18T21:20:53.061Z,100888.84
2023-04-18T21:24:55.116Z,100880.06
2023-04-18T21:28:59.470Z,100887.94
2023-04-18T21:33:02.025Z,100880.03
2023-04-18T21:37:02.277Z,100884.38
2023-04-18T21:41:02.611Z,100885.16
2023-04-18T21:45:03.489Z,100881.69
2023-04-18T21:49:11.822Z,100884.31
2023-04-18T21:53:14.214Z,100873.88
2023-04-18T21:57:16.346Z,100877.38
2023-04-18T22:01:22.427Z,100877.38
2023-04-18T22:05:27.882Z,100871.22
2023-04-18T22:09:29.466Z,100877.34
2023-04-18T22:13:32.951Z,100872.06
2023-04-18T22:17:34.303Z,100875.53
2023-04-18T22:21:52.497Z,100872.84
2023-04-18T22:25:55.246Z,100870.22
2023-04-18T22:29:55.664Z,100860.56
2023-04-18T22:33:58.260Z,100864.03
2023-04-18T22:37:58.395Z,100866.53
2023-04-18T22:42:02.990Z,100861.06
2023-04-18T22:46:06.481Z,100855.75
2023-04-18T22:50:12.099Z,100853.81
2023-04-18T22:54:17.939Z,100849.38
2023-04-18T22:58:45.130Z,100843.19
2023-04-18T23:02:50.163Z,100845.78
2023-04-18T23:06:52.256Z,100845.41
2023-04-18T23:10:53.211Z,100841.03
2023-04-18T23:14:56.814Z,100844.53
2023-04-18T23:18:57.142Z,100830.50
2023-04-18T23:22:57.787Z,100832.13
2023-04-18T23:26:58.634Z,100828.53
2023-04-18T23:31:07.776Z,100819.66
2023-04-18T23:35:09.047Z,100825.66
2023-04-18T23:39:15.007Z,100825.72
2023-04-18T23:43:18.609Z,100831.81
2023-04-18T23:47:22.520Z,100821.44
2023-04-18T23:51:26.303Z,100822.38
2023-04-18T23:55:36.202Z,100818.94
2023-04-18T23:59:38.070Z,100818.00
